FFL250 KELM-KBUF
Flight info
| Callsign | FFL250 |
|---|---|
| Flight time | 0h 25m |
| Altitude | 10000 |
| Route | GEE |
| Aircraft | C750/M-SBDE3FGHRWXY/S |
Departure
| Time | 2026-05-07 23:31 |
|---|---|
| Airport | Elmira Corning Regional Airport (KELM) |
Arrival
| Time | 2026-05-07 23:57 |
|---|---|
| Airport | Buffalo Niagara International Airport (KBUF) |
| Time | Latitude | Longitude | Altitude | Speed | Heading |
|---|---|---|---|---|---|
| 2026-05-07 23:18 | 42.16087 | -76.89724 | 947 ft | 0 kts | 46° |
| 2026-05-07 23:24 | 42.16087 | -76.89723 | 947 ft | 1 kts | 49° |
| 2026-05-07 23:24 | 42.16083 | -76.89710 | 947 ft | 1 kts | 133° |
| 2026-05-07 23:25 | 42.16068 | -76.89704 | 946 ft | 3 kts | 168° |
| 2026-05-07 23:25 | 42.16061 | -76.89702 | 946 ft | 0 kts | 171° |
| 2026-05-07 23:26 | 42.16046 | -76.89699 | 947 ft | 4 kts | 171° |
| 2026-05-07 23:26 | 42.16025 | -76.89694 | 947 ft | 2 kts | 167° |
| 2026-05-07 23:26 | 42.16009 | -76.89686 | 947 ft | 5 kts | 156° |
| 2026-05-07 23:26 | 42.15983 | -76.89649 | 948 ft | 7 kts | 111° |
| 2026-05-07 23:27 | 42.16072 | -76.89463 | 947 ft | 14 kts | 52° |
| 2026-05-07 23:27 | 42.16125 | -76.89362 | 946 ft | 13 kts | 56° |
| 2026-05-07 23:27 | 42.16177 | -76.89267 | 947 ft | 12 kts | 52° |
| 2026-05-07 23:28 | 42.16231 | -76.89185 | 946 ft | 11 kts | 51° |
| 2026-05-07 23:28 | 42.16278 | -76.89104 | 948 ft | 11 kts | 52° |
| 2026-05-07 23:28 | 42.16340 | -76.88997 | 948 ft | 18 kts | 51° |
| 2026-05-07 23:28 | 42.16415 | -76.88868 | 946 ft | 17 kts | 52° |
| 2026-05-07 23:29 | 42.16484 | -76.88746 | 948 ft | 16 kts | 52° |
| 2026-05-07 23:29 | 42.16551 | -76.88634 | 947 ft | 15 kts | 49° |
| 2026-05-07 23:29 | 42.16616 | -76.88532 | 946 ft | 14 kts | 49° |
| 2026-05-07 23:29 | 42.16680 | -76.88429 | 947 ft | 17 kts | 51° |
| 2026-05-07 23:30 | 42.16757 | -76.88303 | 947 ft | 17 kts | 50° |
| 2026-05-07 23:30 | 42.16821 | -76.88193 | 947 ft | 12 kts | 76° |
| 2026-05-07 23:30 | 42.16784 | -76.88110 | 947 ft | 11 kts | 142° |
| 2026-05-07 23:30 | 42.16726 | -76.88122 | 947 ft | 9 kts | 224° |
| 2026-05-07 23:31 | 42.16674 | -76.88203 | 946 ft | 21 kts | 230° |
| 2026-05-07 23:31 | 42.16346 | -76.88734 | 949 ft | 130 kts | 230° |
| 2026-05-07 23:31 | 42.15650 | -76.89866 | 1140 ft | 170 kts | 231° |
| 2026-05-07 23:31 | 42.14830 | -76.91199 | 1604 ft | 201 kts | 229° |
| 2026-05-07 23:32 | 42.13813 | -76.92700 | 2119 ft | 233 kts | 228° |
| 2026-05-07 23:32 | 42.12890 | -76.94583 | 2563 ft | 246 kts | 254° |
| 2026-05-07 23:32 | 42.12973 | -76.96846 | 2944 ft | 247 kts | 292° |
| 2026-05-07 23:32 | 42.14122 | -76.98511 | 3514 ft | 250 kts | 328° |
| 2026-05-07 23:33 | 42.15709 | -76.99480 | 4246 ft | 252 kts | 335° |
| 2026-05-07 23:33 | 42.17283 | -77.00566 | 4961 ft | 256 kts | 327° |
| 2026-05-07 23:33 | 42.18704 | -77.02023 | 5641 ft | 258 kts | 319° |
| 2026-05-07 23:33 | 42.20055 | -77.03628 | 6332 ft | 261 kts | 318° |
| 2026-05-07 23:34 | 42.21466 | -77.05191 | 6962 ft | 262 kts | 320° |
| 2026-05-07 23:34 | 42.22909 | -77.06719 | 7593 ft | 265 kts | 319° |
| 2026-05-07 23:34 | 42.24325 | -77.08243 | 8219 ft | 267 kts | 318° |
| 2026-05-07 23:34 | 42.25801 | -77.09855 | 8900 ft | 268 kts | 317° |
| 2026-05-07 23:35 | 42.27263 | -77.11450 | 9560 ft | 270 kts | 317° |
| 2026-05-07 23:35 | 42.28739 | -77.13058 | 10016 ft | 279 kts | 317° |
| 2026-05-07 23:35 | 42.30257 | -77.14709 | 10029 ft | 291 kts | 317° |
| 2026-05-07 23:35 | 42.31922 | -77.16534 | 10038 ft | 325 kts | 317° |
| 2026-05-07 23:36 | 42.33763 | -77.18542 | 10034 ft | 354 kts | 317° |
| 2026-05-07 23:36 | 42.35750 | -77.20701 | 10034 ft | 376 kts | 317° |
| 2026-05-07 23:36 | 42.37798 | -77.22924 | 10043 ft | 380 kts | 317° |
| 2026-05-07 23:36 | 42.39850 | -77.25168 | 10041 ft | 381 kts | 317° |
| 2026-05-07 23:37 | 42.41913 | -77.27431 | 10018 ft | 382 kts | 317° |
| 2026-05-07 23:37 | 42.43976 | -77.29690 | 10000 ft | 382 kts | 317° |
| 2026-05-07 23:37 | 42.46044 | -77.31951 | 9994 ft | 382 kts | 317° |
| 2026-05-07 23:37 | 42.48022 | -77.34109 | 9982 ft | 345 kts | 317° |
| 2026-05-07 23:38 | 42.49778 | -77.36026 | 9990 ft | 307 kts | 317° |
| 2026-05-07 23:38 | 42.51470 | -77.37907 | 10002 ft | 329 kts | 316° |
| 2026-05-07 23:38 | 42.53295 | -77.39938 | 10010 ft | 342 kts | 316° |
| 2026-05-07 23:38 | 42.55156 | -77.41965 | 10011 ft | 344 kts | 316° |
| 2026-05-07 23:39 | 42.57034 | -77.44012 | 10012 ft | 353 kts | 316° |
| 2026-05-07 23:39 | 42.58971 | -77.46163 | 10010 ft | 362 kts | 316° |
| 2026-05-07 23:39 | 42.60936 | -77.48347 | 10004 ft | 366 kts | 316° |
| 2026-05-07 23:39 | 42.62922 | -77.50526 | 10010 ft | 369 kts | 316° |
| 2026-05-07 23:40 | 42.64893 | -77.52748 | 9994 ft | 367 kts | 313° |
| 2026-05-07 23:40 | 42.66765 | -77.55109 | 9999 ft | 368 kts | 314° |
| 2026-05-07 23:40 | 42.68717 | -77.57371 | 9985 ft | 369 kts | 316° |
| 2026-05-07 23:40 | 42.70707 | -77.59573 | 9990 ft | 371 kts | 316° |
| 2026-05-07 23:41 | 42.72709 | -77.61766 | 9997 ft | 369 kts | 316° |
| 2026-05-07 23:41 | 42.74720 | -77.63915 | 10011 ft | 370 kts | 317° |
| 2026-05-07 23:41 | 42.76744 | -77.66071 | 10024 ft | 371 kts | 317° |
| 2026-05-07 23:41 | 42.78772 | -77.68255 | 10006 ft | 372 kts | 317° |
| 2026-05-07 23:42 | 42.80794 | -77.70454 | 10009 ft | 372 kts | 317° |
| 2026-05-07 23:42 | 42.82789 | -77.72628 | 10007 ft | 371 kts | 317° |
| 2026-05-07 23:42 | 42.84471 | -77.75211 | 9968 ft | 361 kts | 297° |
| 2026-05-07 23:42 | 42.85361 | -77.78379 | 10000 ft | 358 kts | 283° |
| 2026-05-07 23:43 | 42.85942 | -77.81675 | 10032 ft | 357 kts | 280° |
| 2026-05-07 23:43 | 42.86445 | -77.84989 | 10028 ft | 357 kts | 279° |
| 2026-05-07 23:43 | 42.86930 | -77.88312 | 10025 ft | 358 kts | 279° |
| 2026-05-07 23:43 | 42.87410 | -77.91638 | 10027 ft | 357 kts | 279° |
| 2026-05-07 23:44 | 42.87892 | -77.94994 | 10030 ft | 364 kts | 279° |
| 2026-05-07 23:44 | 42.88377 | -77.98410 | 10032 ft | 371 kts | 279° |
| 2026-05-07 23:44 | 42.88853 | -78.01854 | 10034 ft | 370 kts | 279° |
| 2026-05-07 23:44 | 42.89326 | -78.05304 | 10011 ft | 371 kts | 279° |
| 2026-05-07 23:45 | 42.89800 | -78.08763 | 10009 ft | 370 kts | 279° |
| 2026-05-07 23:45 | 42.90314 | -78.12204 | 9980 ft | 371 kts | 283° |
| 2026-05-07 23:45 | 42.91416 | -78.15217 | 9666 ft | 342 kts | 301° |
| 2026-05-07 23:45 | 42.92836 | -78.17639 | 9205 ft | 313 kts | 308° |
| 2026-05-07 23:46 | 42.94241 | -78.19768 | 8766 ft | 291 kts | 309° |
| 2026-05-07 23:46 | 42.95569 | -78.21734 | 8319 ft | 273 kts | 309° |
| 2026-05-07 23:46 | 42.96835 | -78.23599 | 7887 ft | 264 kts | 309° |
| 2026-05-07 23:46 | 42.98071 | -78.25429 | 7463 ft | 260 kts | 309° |
| 2026-05-07 23:47 | 42.99287 | -78.27247 | 7043 ft | 258 kts | 309° |
| 2026-05-07 23:47 | 43.00487 | -78.29056 | 6636 ft | 256 kts | 309° |
| 2026-05-07 23:47 | 43.01672 | -78.30860 | 6236 ft | 254 kts | 309° |
| 2026-05-07 23:47 | 43.02843 | -78.32656 | 5988 ft | 251 kts | 309° |
| 2026-05-07 23:48 | 43.04014 | -78.34452 | 6008 ft | 254 kts | 309° |
| 2026-05-07 23:48 | 43.05185 | -78.36270 | 6009 ft | 255 kts | 309° |
| 2026-05-07 23:48 | 43.06356 | -78.38096 | 6007 ft | 255 kts | 309° |
| 2026-05-07 23:48 | 43.07526 | -78.39922 | 6012 ft | 256 kts | 309° |
| 2026-05-07 23:49 | 43.08661 | -78.41690 | 6001 ft | 235 kts | 309° |
| 2026-05-07 23:49 | 43.09696 | -78.43289 | 5992 ft | 215 kts | 309° |
| 2026-05-07 23:49 | 43.10678 | -78.44796 | 5996 ft | 211 kts | 309° |
| 2026-05-07 23:49 | 43.11668 | -78.46318 | 5686 ft | 215 kts | 309° |
| 2026-05-07 23:50 | 43.12652 | -78.47837 | 5263 ft | 212 kts | 309° |
| 2026-05-07 23:50 | 43.13619 | -78.49350 | 4860 ft | 210 kts | 309° |
| 2026-05-07 23:50 | 43.14161 | -78.51163 | 4312 ft | 211 kts | 272° |
| 2026-05-07 23:50 | 43.13646 | -78.52987 | 3773 ft | 210 kts | 230° |
| 2026-05-07 23:51 | 43.12375 | -78.53828 | 3272 ft | 203 kts | 193° |
| 2026-05-07 23:51 | 43.11016 | -78.54044 | 3020 ft | 187 kts | 188° |
| 2026-05-07 23:51 | 43.09771 | -78.54241 | 3022 ft | 181 kts | 189° |
| 2026-05-07 23:51 | 43.08528 | -78.54553 | 2981 ft | 181 kts | 204° |
| 2026-05-07 23:52 | 43.07446 | -78.55400 | 3008 ft | 179 kts | 220° |
| 2026-05-07 23:52 | 43.06526 | -78.56539 | 3020 ft | 180 kts | 226° |
| 2026-05-07 23:52 | 43.05627 | -78.57717 | 3018 ft | 179 kts | 227° |
| 2026-05-07 23:52 | 43.04729 | -78.58900 | 3015 ft | 180 kts | 227° |
| 2026-05-07 23:53 | 43.03838 | -78.60074 | 3007 ft | 177 kts | 226° |
| 2026-05-07 23:53 | 43.02951 | -78.61241 | 3007 ft | 175 kts | 227° |
| 2026-05-07 23:53 | 43.02066 | -78.62406 | 2871 ft | 175 kts | 227° |
| 2026-05-07 23:53 | 43.01208 | -78.63533 | 2554 ft | 159 kts | 227° |
| 2026-05-07 23:54 | 43.00475 | -78.64490 | 2347 ft | 135 kts | 226° |
| 2026-05-07 23:54 | 42.99839 | -78.65322 | 2188 ft | 121 kts | 228° |
| 2026-05-07 23:54 | 42.99232 | -78.66133 | 2009 ft | 122 kts | 229° |
| 2026-05-07 23:54 | 42.98641 | -78.66913 | 1836 ft | 118 kts | 227° |
| 2026-05-07 23:55 | 42.98047 | -78.67692 | 1681 ft | 119 kts | 228° |
| 2026-05-07 23:55 | 42.97459 | -78.68464 | 1527 ft | 115 kts | 227° |
| 2026-05-07 23:55 | 42.96881 | -78.69221 | 1362 ft | 116 kts | 225° |
| 2026-05-07 23:55 | 42.96306 | -78.69986 | 1182 ft | 114 kts | 225° |
| 2026-05-07 23:56 | 42.95723 | -78.70746 | 1030 ft | 118 kts | 223° |
| 2026-05-07 23:56 | 42.95137 | -78.71510 | 856 ft | 113 kts | 225° |
| 2026-05-07 23:56 | 42.94604 | -78.72241 | 726 ft | 102 kts | 223° |
| 2026-05-07 23:56 | 42.94164 | -78.72816 | 712 ft | 67 kts | 223° |
| 2026-05-07 23:57 | 42.93991 | -78.73046 | 712 ft | 14 kts | 264° |
| 2026-05-07 23:57 | 42.94032 | -78.73159 | 711 ft | 13 kts | 307° |
| 2026-05-07 23:57 | 42.94085 | -78.73256 | 715 ft | 13 kts | 307° |
| 2026-05-07 23:57 | 42.94140 | -78.73356 | 707 ft | 14 kts | 306° |
| 2026-05-07 23:58 | 42.94203 | -78.73471 | 699 ft | 15 kts | 307° |
| 2026-05-07 23:58 | 42.94285 | -78.73502 | 707 ft | 13 kts | 16° |
| 2026-05-07 23:58 | 42.94381 | -78.73495 | 702 ft | 16 kts | 358° |
| 2026-05-07 23:58 | 42.94497 | -78.73497 | 700 ft | 16 kts | 359° |
| 2026-05-07 23:59 | 42.94595 | -78.73499 | 705 ft | 9 kts | 358° |
| 2026-05-07 23:59 | 42.94641 | -78.73541 | 705 ft | 8 kts | 298° |
| 2026-05-07 23:59 | 42.94682 | -78.73549 | 701 ft | 7 kts | 24° |
| 2026-05-07 23:59 | 42.94726 | -78.73508 | 699 ft | 8 kts | 63° |
| 2026-05-08 00:00 | 42.94721 | -78.73472 | 701 ft | 0 kts | 123° |